sensor_id;sensor_type;location;lat;lon;timestamp;pressure;altitude;pressure_sealevel;temperature;humidity
60920;BME280;59039;52.108;19.942;2022-11-02T00:01:50;100859.25;;;11.45;91.91
60920;BME280;59039;52.108;19.942;2022-11-02T00:04:15;100865.84;;;11.46;91.80
60920;BME280;59039;52.108;19.942;2022-11-02T00:06:40;100864.70;;;11.47;91.70
60920;BME280;59039;52.108;19.942;2022-11-02T00:09:06;100861.91;;;11.48;91.92
60920;BME280;59039;52.108;19.942;2022-11-02T00:11:31;100857.69;;;11.48;91.86
60920;BME280;59039;52.108;19.942;2022-11-02T00:13:56;100853.59;;;11.49;91.80
60920;BME280;59039;52.108;19.942;2022-11-02T00:16:22;100852.97;;;11.50;91.82
60920;BME280;59039;52.108;19.942;2022-11-02T00:18:50;100860.20;;;11.50;91.82
60920;BME280;59039;52.108;19.942;2022-11-02T00:21:18;100866.10;;;11.51;91.76
60920;BME280;59039;52.108;19.942;2022-11-02T00:23:45;100880.45;;;11.53;91.67
60920;BME280;59039;52.108;19.942;2022-11-02T00:26:11;100884.81;;;11.53;91.64
60920;BME280;59039;52.108;19.942;2022-11-02T00:28:38;100883.52;;;11.53;91.70
60920;BME280;59039;52.108;19.942;2022-11-02T00:31:03;100875.15;;;11.53;91.77
60920;BME280;59039;52.108;19.942;2022-11-02T00:33:28;100871.31;;;11.54;91.69
60920;BME280;59039;52.108;19.942;2022-11-02T00:35:54;100871.91;;;11.55;91.62
60920;BME280;59039;52.108;19.942;2022-11-02T00:38:19;100868.88;;;11.54;91.70
60920;BME280;59039;52.108;19.942;2022-11-02T00:40:44;100861.71;;;11.54;91.89
60920;BME280;59039;52.108;19.942;2022-11-02T00:43:10;100863.27;;;11.54;91.79
60920;BME280;59039;52.108;19.942;2022-11-02T00:45:35;100864.17;;;11.54;91.77
60920;BME280;59039;52.108;19.942;2022-11-02T00:48:00;100865.09;;;11.54;91.93
60920;BME280;59039;52.108;19.942;2022-11-02T00:50:25;100864.52;;;11.55;91.81
60920;BME280;59039;52.108;19.942;2022-11-02T00:52:51;100861.77;;;11.55;91.86
60920;BME280;59039;52.108;19.942;2022-11-02T00:55:16;100867.14;;;11.56;91.71
60920;BME280;59039;52.108;19.942;2022-11-02T00:57:41;100871.05;;;11.56;91.80
60920;BME280;59039;52.108;19.942;2022-11-02T01:00:08;100869.73;;;11.57;91.80
60920;BME280;59039;52.108;19.942;2022-11-02T01:02:33;100869.42;;;11.58;91.85
60920;BME280;59039;52.108;19.942;2022-11-02T01:04:58;100869.74;;;11.59;91.67
60920;BME280;59039;52.108;19.942;2022-11-02T01:07:24;100866.83;;;11.59;91.75
60920;BME280;59039;52.108;19.942;2022-11-02T01:09:51;100868.84;;;11.59;92.04
60920;BME280;59039;52.108;19.942;2022-11-02T01:12:16;100870.23;;;11.59;91.72
60920;BME280;59039;52.108;19.942;2022-11-02T01:14:41;100873.80;;;11.60;91.91
60920;BME280;59039;52.108;19.942;2022-11-02T01:17:07;100869.79;;;11.60;91.91
60920;BME280;59039;52.108;19.942;2022-11-02T01:19:32;100875.52;;;11.61;91.85
60920;BME280;59039;52.108;19.942;2022-11-02T01:21:57;100874.58;;;11.61;92.01
60920;BME280;59039;52.108;19.942;2022-11-02T01:24:22;100871.82;;;11.61;91.91
60920;BME280;59039;52.108;19.942;2022-11-02T01:26:51;100869.95;;;11.62;92.10
60920;BME280;59039;52.108;19.942;2022-11-02T01:29:17;100865.02;;;11.62;92.02
60920;BME280;59039;52.108;19.942;2022-11-02T01:31:42;100863.41;;;11.64;91.97
60920;BME280;59039;52.108;19.942;2022-11-02T01:34:09;100864.06;;;11.64;92.07
60920;BME280;59039;52.108;19.942;2022-11-02T01:36:35;100865.46;;;11.65;92.11
60920;BME280;59039;52.108;19.942;2022-11-02T01:39:00;100862.77;;;11.66;92.05
60920;BME280;59039;52.108;19.942;2022-11-02T01:41:25;100864.14;;;11.67;91.92
60920;BME280;59039;52.108;19.942;2022-11-02T01:43:54;100868.23;;;11.68;92.15
60920;BME280;59039;52.108;19.942;2022-11-02T01:46:27;100867.27;;;11.69;91.97
60920;BME280;59039;52.108;19.942;2022-11-02T01:49:06;100877.34;;;11.70;91.89
60920;BME280;59039;52.108;19.942;2022-11-02T01:51:38;100875.77;;;11.69;91.96
60920;BME280;59039;52.108;19.942;2022-11-02T01:54:08;100875.33;;;11.70;92.08
60920;BME280;59039;52.108;19.942;2022-11-02T01:56:36;100872.17;;;11.70;91.98
60920;BME280;59039;52.108;19.942;2022-11-02T01:59:06;100874.86;;;11.71;92.06
60920;BME280;59039;52.108;19.942;2022-11-02T02:01:33;100878.96;;;11.72;92.17
60920;BME280;59039;52.108;19.942;2022-11-02T02:04:00;100885.81;;;11.73;92.10
60920;BME280;59039;52.108;19.942;2022-11-02T02:06:26;100886.43;;;11.74;92.06
60920;BME280;59039;52.108;19.942;2022-11-02T02:08:52;100884.97;;;11.74;92.54
60920;BME280;59039;52.108;19.942;2022-11-02T02:11:29;100883.09;;;11.74;92.35
60920;BME280;59039;52.108;19.942;2022-11-02T02:14:02;100883.32;;;11.76;92.42
60920;BME280;59039;52.108;19.942;2022-11-02T02:22:35;100885.86;;;11.77;92.26
60920;BME280;59039;52.108;19.942;2022-11-02T02:27:59;100884.06;;;11.79;92.25
60920;BME280;59039;52.108;19.942;2022-11-02T02:30:27;100880.19;;;11.80;92.32
60920;BME280;59039;52.108;19.942;2022-11-02T02:33:04;100877.32;;;11.79;92.54
60920;BME280;59039;52.108;19.942;2022-11-02T02:35:43;100882.32;;;11.80;92.50
60920;BME280;59039;52.108;19.942;2022-11-02T02:39:00;100882.46;;;11.80;92.38
60920;BME280;59039;52.108;19.942;2022-11-02T02:43:40;100880.27;;;11.82;92.53
60920;BME280;59039;52.108;19.942;2022-11-02T02:46:18;100879.96;;;11.84;92.43
60920;BME280;59039;52.108;19.942;2022-11-02T02:48:46;100885.45;;;11.85;92.66
60920;BME280;59039;52.108;19.942;2022-11-02T02:51:23;100886.70;;;11.85;92.38
60920;BME280;59039;52.108;19.942;2022-11-02T02:53:58;100886.57;;;11.87;92.79
60920;BME280;59039;52.108;19.942;2022-11-02T02:56:25;100888.11;;;11.88;92.57
60920;BME280;59039;52.108;19.942;2022-11-02T02:59:17;100886.90;;;11.89;92.81
60920;BME280;59039;52.108;19.942;2022-11-02T03:01:44;100891.08;;;11.91;92.59
60920;BME280;59039;52.108;19.942;2022-11-02T03:04:13;100896.64;;;11.92;92.70
60920;BME280;59039;52.108;19.942;2022-11-02T03:06:41;100894.38;;;11.93;92.59
60920;BME280;59039;52.108;19.942;2022-11-02T03:09:18;100898.23;;;11.94;92.68
60920;BME280;59039;52.108;19.942;2022-11-02T03:14:59;100900.81;;;11.97;92.56
60920;BME280;59039;52.108;19.942;2022-11-02T03:17:41;100897.93;;;11.97;92.66
60920;BME280;59039;52.108;19.942;2022-11-02T03:20:25;100894.95;;;11.98;92.71
60920;BME280;59039;52.108;19.942;2022-11-02T03:23:17;100896.14;;;11.99;92.70
60920;BME280;59039;52.108;19.942;2022-11-02T03:31:30;100907.65;;;12.02;92.65
60920;BME280;59039;52.108;19.942;2022-11-02T03:36:44;100908.98;;;12.03;92.64
60920;BME280;59039;52.108;19.942;2022-11-02T03:39:14;100913.28;;;12.03;92.65
60920;BME280;59039;52.108;19.942;2022-11-02T03:41:43;100910.50;;;12.04;92.63
60920;BME280;59039;52.108;19.942;2022-11-02T03:44:14;100914.46;;;12.04;92.77
60920;BME280;59039;52.108;19.942;2022-11-02T03:46:42;100914.94;;;12.05;92.79
60920;BME280;59039;52.108;19.942;2022-11-02T03:49:12;100917.45;;;12.04;92.83
60920;BME280;59039;52.108;19.942;2022-11-02T03:51:41;100923.55;;;12.04;92.70
60920;BME280;59039;52.108;19.942;2022-11-02T03:54:14;100924.36;;;12.05;92.86
60920;BME280;59039;52.108;19.942;2022-11-02T03:56:55;100927.44;;;12.05;92.94
60920;BME280;59039;52.108;19.942;2022-11-02T03:59:23;100933.04;;;12.06;92.73
60920;BME280;59039;52.108;19.942;2022-11-02T04:01:49;100931.65;;;12.07;92.62
60920;BME280;59039;52.108;19.942;2022-11-02T04:04:16;100931.41;;;12.07;92.95
60920;BME280;59039;52.108;19.942;2022-11-02T04:06:42;100932.81;;;12.08;92.77
60920;BME280;59039;52.108;19.942;2022-11-02T04:09:09;100928.98;;;12.08;92.94
60920;BME280;59039;52.108;19.942;2022-11-02T04:11:35;100932.36;;;12.09;92.78
60920;BME280;59039;52.108;19.942;2022-11-02T04:14:00;100931.52;;;12.10;92.71
60920;BME280;59039;52.108;19.942;2022-11-02T04:16:25;100934.73;;;12.10;92.69
60920;BME280;59039;52.108;19.942;2022-11-02T04:18:51;100938.11;;;12.11;92.73
60920;BME280;59039;52.108;19.942;2022-11-02T04:21:16;100935.72;;;12.11;92.83
60920;BME280;59039;52.108;19.942;2022-11-02T04:23:41;100942.20;;;12.12;92.88
60920;BME280;59039;52.108;19.942;2022-11-02T04:26:06;100937.98;;;12.12;92.86
60920;BME280;59039;52.108;19.942;2022-11-02T04:28:31;100942.48;;;12.13;92.86
60920;BME280;59039;52.108;19.942;2022-11-02T04:30:57;100943.86;;;12.14;92.81
60920;BME280;59039;52.108;19.942;2022-11-02T04:33:22;100945.48;;;12.14;92.75
60920;BME280;59039;52.108;19.942;2022-11-02T04:35:48;100949.30;;;12.14;92.80
60920;BME280;59039;52.108;19.942;2022-11-02T04:38:13;100944.73;;;12.14;93.24
60920;BME280;59039;52.108;19.942;2022-11-02T04:44:18;100949.91;;;12.15;93.30
60920;BME280;59039;52.108;19.942;2022-11-02T04:46:44;100948.58;;;12.16;93.54
60920;BME280;59039;52.108;19.942;2022-11-02T04:49:10;100944.67;;;12.17;92.99
60920;BME280;59039;52.108;19.942;2022-11-02T04:51:36;100943.66;;;12.18;93.08
60920;BME280;59039;52.108;19.942;2022-11-02T04:54:02;100938.35;;;12.18;93.21
60920;BME280;59039;52.108;19.942;2022-11-02T04:56:28;100940.23;;;12.19;93.13
60920;BME280;59039;52.108;19.942;2022-11-02T04:58:56;100943.08;;;12.20;93.10
60920;BME280;59039;52.108;19.942;2022-11-02T05:01:22;100945.67;;;12.21;93.05
60920;BME280;59039;52.108;19.942;2022-11-02T05:03:49;100943.25;;;12.22;93.17
60920;BME280;59039;52.108;19.942;2022-11-02T05:06:16;100947.42;;;12.22;93.31
60920;BME280;59039;52.108;19.942;2022-11-02T05:08:42;100949.98;;;12.22;93.20
60920;BME280;59039;52.108;19.942;2022-11-02T05:11:08;100954.25;;;12.23;93.26
60920;BME280;59039;52.108;19.942;2022-11-02T05:13:34;100956.56;;;12.23;93.29
60920;BME280;59039;52.108;19.942;2022-11-02T05:16:00;100959.02;;;12.24;93.21
60920;BME280;59039;52.108;19.942;2022-11-02T05:18:26;100965.02;;;12.24;93.30
60920;BME280;59039;52.108;19.942;2022-11-02T05:20:54;100967.73;;;12.24;93.18
60920;BME280;59039;52.108;19.942;2022-11-02T05:23:20;100966.54;;;12.25;93.10
60920;BME280;59039;52.108;19.942;2022-11-02T05:26:11;100964.86;;;12.25;93.14
60920;BME280;59039;52.108;19.942;2022-11-02T05:28:37;100969.29;;;12.27;93.29
60920;BME280;59039;52.108;19.942;2022-11-02T05:31:03;100970.14;;;12.27;93.03
60920;BME280;59039;52.108;19.942;2022-11-02T05:33:29;100970.85;;;12.29;93.04
60920;BME280;59039;52.108;19.942;2022-11-02T05:35:56;100968.04;;;12.30;92.99
60920;BME280;59039;52.108;19.942;2022-11-02T05:38:22;100970.52;;;12.31;93.14
60920;BME280;59039;52.108;19.942;2022-11-02T05:40:53;100974.83;;;12.31;93.16
60920;BME280;59039;52.108;19.942;2022-11-02T05:43:18;100975.02;;;12.31;93.25
60920;BME280;59039;52.108;19.942;2022-11-02T05:45:44;100977.21;;;12.31;93.37
60920;BME280;59039;52.108;19.942;2022-11-02T05:48:09;100973.53;;;12.31;93.43
60920;BME280;59039;52.108;19.942;2022-11-02T05:50:34;100975.10;;;12.32;93.42
60920;BME280;59039;52.108;19.942;2022-11-02T05:52:59;100978.92;;;12.32;93.31
60920;BME280;59039;52.108;19.942;2022-11-02T05:55:24;100982.48;;;12.33;93.25
60920;BME280;59039;52.108;19.942;2022-11-02T05:57:51;100985.71;;;12.33;93.42
60920;BME280;59039;52.108;19.942;2022-11-02T06:00:16;100989.02;;;12.33;93.28
60920;BME280;59039;52.108;19.942;2022-11-02T06:02:41;100991.86;;;12.33;93.34
60920;BME280;59039;52.108;19.942;2022-11-02T06:05:07;100992.91;;;12.34;93.32
60920;BME280;59039;52.108;19.942;2022-11-02T06:07:32;100999.58;;;12.35;93.60
60920;BME280;59039;52.108;19.942;2022-11-02T06:09:57;100998.44;;;12.35;93.54
60920;BME280;59039;52.108;19.942;2022-11-02T06:12:22;100999.27;;;12.36;93.68
60920;BME280;59039;52.108;19.942;2022-11-02T06:14:48;100997.89;;;12.37;93.37
60920;BME280;59039;52.108;19.942;2022-11-02T06:17:13;100999.91;;;12.39;93.41
60920;BME280;59039;52.108;19.942;2022-11-02T06:19:38;101003.70;;;12.39;93.54
60920;BME280;59039;52.108;19.942;2022-11-02T06:22:03;101002.92;;;12.40;93.35
60920;BME280;59039;52.108;19.942;2022-11-02T06:24:28;101004.16;;;12.40;93.56
60920;BME280;59039;52.108;19.942;2022-11-02T06:26:53;101006.73;;;12.39;93.59
60920;BME280;59039;52.108;19.942;2022-11-02T06:29:19;101009.74;;;12.40;93.58
60920;BME280;59039;52.108;19.942;2022-11-02T06:31:44;101012.73;;;12.41;93.55
60920;BME280;59039;52.108;19.942;2022-11-02T06:34:09;101010.65;;;12.42;93.48
60920;BME280;59039;52.108;19.942;2022-11-02T06:36:34;101010.64;;;12.42;93.56
60920;BME280;59039;52.108;19.942;2022-11-02T06:38:59;101009.48;;;12.43;93.38
60920;BME280;59039;52.108;19.942;2022-11-02T06:41:24;101012.20;;;12.43;93.51
60920;BME280;59039;52.108;19.942;2022-11-02T06:43:50;101016.61;;;12.44;93.54
60920;BME280;59039;52.108;19.942;2022-11-02T06:46:17;101017.04;;;12.43;93.46
60920;BME280;59039;52.108;19.942;2022-11-02T06:48:45;101016.06;;;12.44;93.52
60920;BME280;59039;52.108;19.942;2022-11-02T06:51:12;101017.78;;;12.45;93.41
60920;BME280;59039;52.108;19.942;2022-11-02T06:53:37;101013.39;;;12.46;93.44
60920;BME280;59039;52.108;19.942;2022-11-02T06:56:04;101015.59;;;12.47;93.44
60920;BME280;59039;52.108;19.942;2022-11-02T06:58:32;101016.96;;;12.48;93.51
60920;BME280;59039;52.108;19.942;2022-11-02T07:01:03;101018.02;;;12.48;93.72
60920;BME280;59039;52.108;19.942;2022-11-02T07:03:29;101015.77;;;12.49;93.67
60920;BME280;59039;52.108;19.942;2022-11-02T07:05:55;101018.59;;;12.50;93.52
60920;BME280;59039;52.108;19.942;2022-11-02T07:08:21;101021.59;;;12.51;93.52
60920;BME280;59039;52.108;19.942;2022-11-02T07:10:46;101023.31;;;12.52;93.58
60920;BME280;59039;52.108;19.942;2022-11-02T07:13:11;101022.44;;;12.53;93.46
60920;BME280;59039;52.108;19.942;2022-11-02T07:15:37;101024.37;;;12.54;93.31
60920;BME280;59039;52.108;19.942;2022-11-02T07:18:02;101023.08;;;12.54;93.63
60920;BME280;59039;52.108;19.942;2022-11-02T07:20:27;101028.05;;;12.55;93.35
60920;BME280;59039;52.108;19.942;2022-11-02T07:22:54;101029.77;;;12.57;93.28
60920;BME280;59039;52.108;19.942;2022-11-02T07:25:20;101028.61;;;12.57;93.42
60920;BME280;59039;52.108;19.942;2022-11-02T07:27:45;101030.31;;;12.58;93.49
60920;BME280;59039;52.108;19.942;2022-11-02T07:30:10;101033.17;;;12.59;93.48
60920;BME280;59039;52.108;19.942;2022-11-02T07:32:40;101029.09;;;12.60;93.40
60920;BME280;59039;52.108;19.942;2022-11-02T07:35:07;101031.16;;;12.61;93.61
60920;BME280;59039;52.108;19.942;2022-11-02T07:37:33;101027.10;;;12.62;93.55
60920;BME280;59039;52.108;19.942;2022-11-02T07:39:58;101025.40;;;12.62;93.72
60920;BME280;59039;52.108;19.942;2022-11-02T07:42:25;101026.55;;;12.63;93.49
60920;BME280;59039;52.108;19.942;2022-11-02T07:44:50;101029.45;;;12.63;93.47
60920;BME280;59039;52.108;19.942;2022-11-02T07:47:15;101028.08;;;12.64;93.42
60920;BME280;59039;52.108;19.942;2022-11-02T07:49:40;101028.98;;;12.64;93.31
60920;BME280;59039;52.108;19.942;2022-11-02T07:52:05;101028.65;;;12.64;93.35
60920;BME280;59039;52.108;19.942;2022-11-02T07:54:31;101024.09;;;12.64;93.54
60920;BME280;59039;52.108;19.942;2022-11-02T07:56:56;101024.98;;;12.64;93.51
60920;BME280;59039;52.108;19.942;2022-11-02T07:59:21;101023.23;;;12.66;93.45
60920;BME280;59039;52.108;19.942;2022-11-02T08:01:46;101020.05;;;12.66;93.38
60920;BME280;59039;52.108;19.942;2022-11-02T08:04:11;101018.00;;;12.67;93.39
60920;BME280;59039;52.108;19.942;2022-11-02T08:06:36;101020.66;;;12.68;93.43
60920;BME280;59039;52.108;19.942;2022-11-02T08:09:02;101020.77;;;12.68;93.23
60920;BME280;59039;52.108;19.942;2022-11-02T08:11:27;101020.26;;;12.68;93.21
60920;BME280;59039;52.108;19.942;2022-11-02T08:13:52;101018.59;;;12.68;93.28
60920;BME280;59039;52.108;19.942;2022-11-02T08:16:17;101015.75;;;12.68;93.27
60920;BME280;59039;52.108;19.942;2022-11-02T08:18:42;101016.34;;;12.69;93.32
60920;BME280;59039;52.108;19.942;2022-11-02T08:21:08;101017.40;;;12.69;93.17
60920;BME280;59039;52.108;19.942;2022-11-02T08:23:33;101016.14;;;12.69;93.22
60920;BME280;59039;52.108;19.942;2022-11-02T08:25:58;101017.06;;;12.70;93.16
60920;BME280;59039;52.108;19.942;2022-11-02T08:28:26;101018.10;;;12.71;93.09
60920;BME280;59039;52.108;19.942;2022-11-02T08:30:52;101019.68;;;12.72;93.10
60920;BME280;59039;52.108;19.942;2022-11-02T08:33:19;101018.49;;;12.72;93.07
60920;BME280;59039;52.108;19.942;2022-11-02T08:35:46;101017.83;;;12.74;92.96
60920;BME280;59039;52.108;19.942;2022-11-02T08:38:11;101015.19;;;12.75;92.87
60920;BME280;59039;52.108;19.942;2022-11-02T08:40:38;101016.20;;;12.75;92.96
60920;BME280;59039;52.108;19.942;2022-11-02T08:43:10;101015.74;;;12.77;92.79
60920;BME280;59039;52.108;19.942;2022-11-02T08:45:37;101016.96;;;12.77;92.70
60920;BME280;59039;52.108;19.942;2022-11-02T08:48:04;101012.72;;;12.78;92.76
60920;BME280;59039;52.108;19.942;2022-11-02T08:50:30;101015.84;;;12.78;92.21
60920;BME280;59039;52.108;19.942;2022-11-02T08:52:55;101012.31;;;12.78;92.41
60920;BME280;59039;52.108;19.942;2022-11-02T08:55:20;101009.09;;;12.80;92.32
60920;BME280;59039;52.108;19.942;2022-11-02T08:57:49;101009.36;;;12.80;92.40
60920;BME280;59039;52.108;19.942;2022-11-02T09:00:15;101013.23;;;12.82;92.21
60920;BME280;59039;52.108;19.942;2022-11-02T09:02:41;101015.48;;;12.83;92.28
60920;BME280;59039;52.108;19.942;2022-11-02T09:05:07;101014.15;;;12.84;92.41
60920;BME280;59039;52.108;19.942;2022-11-02T09:07:32;101013.41;;;12.85;92.28
60920;BME280;59039;52.108;19.942;2022-11-02T09:09:57;101015.27;;;12.87;92.10
60920;BME280;59039;52.108;19.942;2022-11-02T09:12:23;101010.60;;;12.88;92.21
60920;BME280;59039;52.108;19.942;2022-11-02T09:14:48;101010.08;;;12.90;91.99
60920;BME280;59039;52.108;19.942;2022-11-02T09:17:13;101011.01;;;12.91;91.98
60920;BME280;59039;52.108;19.942;2022-11-02T09:19:38;101010.34;;;12.92;91.59
60920;BME280;59039;52.108;19.942;2022-11-02T09:22:04;101004.17;;;12.94;91.50
60920;BME280;59039;52.108;19.942;2022-11-02T09:24:29;101004.61;;;12.97;91.80
60920;BME280;59039;52.108;19.942;2022-11-02T09:26:54;101005.66;;;12.99;91.75
60920;BME280;59039;52.108;19.942;2022-11-02T09:29:19;101007.42;;;13.01;91.65
60920;BME280;59039;52.108;19.942;2022-11-02T09:31:45;101006.80;;;13.04;91.29
60920;BME280;59039;52.108;19.942;2022-11-02T09:34:10;101008.22;;;13.06;91.03
60920;BME280;59039;52.108;19.942;2022-11-02T09:36:36;101005.23;;;13.09;90.83
60920;BME280;59039;52.108;19.942;2022-11-02T09:39:01;101008.73;;;13.10;91.02
60920;BME280;59039;52.108;19.942;2022-11-02T09:41:35;101005.55;;;13.13;91.20
60920;BME280;59039;52.108;19.942;2022-11-02T09:44:08;101000.45;;;13.14;90.96
60920;BME280;59039;52.108;19.942;2022-11-02T09:46:39;101002.60;;;13.16;91.16
60920;BME280;59039;52.108;19.942;2022-11-02T09:51:39;101005.16;;;13.20;91.04
60920;BME280;59039;52.108;19.942;2022-11-02T09:54:14;101003.05;;;13.21;90.97
60920;BME280;59039;52.108;19.942;2022-11-02T09:56:42;101004.40;;;13.22;90.85
60920;BME280;59039;52.108;19.942;2022-11-02T09:59:19;100998.95;;;13.24;90.94
60920;BME280;59039;52.108;19.942;2022-11-02T10:04:52;101001.20;;;13.27;90.53
60920;BME280;59039;52.108;19.942;2022-11-02T10:10:17;101001.42;;;13.31;90.79
60920;BME280;59039;52.108;19.942;2022-11-02T10:18:16;101005.29;;;13.39;90.47
60920;BME280;59039;52.108;19.942;2022-11-02T10:20:44;101008.30;;;13.41;90.28
60920;BME280;59039;52.108;19.942;2022-11-02T10:23:38;101009.86;;;13.44;90.41
60920;BME280;59039;52.108;19.942;2022-11-02T10:26:04;101014.08;;;13.47;90.41
60920;BME280;59039;52.108;19.942;2022-11-02T10:28:37;101012.14;;;13.48;89.46
60920;BME280;59039;52.108;19.942;2022-11-02T10:31:17;101020.48;;;13.50;89.86
60920;BME280;59039;52.108;19.942;2022-11-02T10:33:45;101021.02;;;13.52;89.54
60920;BME280;59039;52.108;19.942;2022-11-02T10:39:10;101020.38;;;13.54;89.25
60920;BME280;59039;52.108;19.942;2022-11-02T10:42:11;101022.60;;;13.54;87.73
60920;BME280;59039;52.108;19.942;2022-11-02T10:47:34;101021.46;;;13.53;87.34
60920;BME280;59039;52.108;19.942;2022-11-02T10:52:49;101020.55;;;13.49;87.50
60920;BME280;59039;52.108;19.942;2022-11-02T10:57:57;101014.48;;;13.45;86.89
60920;BME280;59039;52.108;19.942;2022-11-02T11:00:33;101016.75;;;13.44;86.30
60920;BME280;59039;52.108;19.942;2022-11-02T11:03:17;101015.15;;;13.42;86.66
60920;BME280;59039;52.108;19.942;2022-11-02T11:08:42;101013.80;;;13.41;87.03
60920;BME280;59039;52.108;19.942;2022-11-02T11:11:12;101013.50;;;13.38;86.10
60920;BME280;59039;52.108;19.942;2022-11-02T11:13:39;101017.45;;;13.37;85.82
60920;BME280;59039;52.108;19.942;2022-11-02T11:16:05;101019.14;;;13.34;86.28
60920;BME280;59039;52.108;19.942;2022-11-02T11:18:31;101024.11;;;13.34;86.12
60920;BME280;59039;52.108;19.942;2022-11-02T11:20:56;101019.95;;;13.34;86.45
60920;BME280;59039;52.108;19.942;2022-11-02T11:23:24;101018.14;;;13.34;86.65
60920;BME280;59039;52.108;19.942;2022-11-02T11:25:56;101017.91;;;13.34;86.36
60920;BME280;59039;52.108;19.942;2022-11-02T11:28:38;101015.48;;;13.35;86.23
60920;BME280;59039;52.108;19.942;2022-11-02T11:31:09;101012.71;;;13.33;86.02
60920;BME280;59039;52.108;19.942;2022-11-02T11:33:52;101009.00;;;13.34;86.38
60920;BME280;59039;52.108;19.942;2022-11-02T11:36:26;101001.27;;;13.35;86.36
60920;BME280;59039;52.108;19.942;2022-11-02T11:38:55;100999.42;;;13.37;87.34
60920;BME280;59039;52.108;19.942;2022-11-02T11:41:22;100997.88;;;13.40;87.08
60920;BME280;59039;52.108;19.942;2022-11-02T11:43:48;100997.66;;;13.42;87.37
60920;BME280;59039;52.108;19.942;2022-11-02T11:46:15;100987.36;;;13.44;87.32
60920;BME280;59039;52.108;19.942;2022-11-02T11:48:45;100985.89;;;13.47;87.15
60920;BME280;59039;52.108;19.942;2022-11-02T11:51:38;100986.73;;;13.49;87.13
60920;BME280;59039;52.108;19.942;2022-11-02T11:56:46;100980.40;;;13.52;86.73
60920;BME280;59039;52.108;19.942;2022-11-02T11:59:29;100974.05;;;13.53;86.99
60920;BME280;59039;52.108;19.942;2022-11-02T12:01:58;100972.48;;;13.54;85.94
60920;BME280;59039;52.108;19.942;2022-11-02T12:07:10;100965.31;;;13.59;86.25
60920;BME280;59039;52.108;19.942;2022-11-02T12:09:48;100963.62;;;13.61;85.88
60920;BME280;59039;52.108;19.942;2022-11-02T12:17:55;100964.70;;;13.65;85.68
60920;BME280;59039;52.108;19.942;2022-11-02T12:26:36;100965.21;;;13.67;85.51
60920;BME280;59039;52.108;19.942;2022-11-02T12:32:24;100954.82;;;13.69;86.15
60920;BME280;59039;52.108;19.942;2022-11-02T12:35:15;100956.27;;;13.68;86.22
60920;BME280;59039;52.108;19.942;2022-11-02T12:43:42;100957.25;;;13.69;85.62
60920;BME280;59039;52.108;19.942;2022-11-02T12:46:30;100959.71;;;13.70;85.03
60920;BME280;59039;52.108;19.942;2022-11-02T12:49:16;100952.41;;;13.70;85.29
60920;BME280;59039;52.108;19.942;2022-11-02T12:51:50;100956.59;;;13.72;85.33
60920;BME280;59039;52.108;19.942;2022-11-02T12:54:26;100958.19;;;13.73;84.89
60920;BME280;59039;52.108;19.942;2022-11-02T12:56:54;100958.82;;;13.74;84.86
60920;BME280;59039;52.108;19.942;2022-11-02T12:59:26;100955.34;;;13.74;84.43
60920;BME280;59039;52.108;19.942;2022-11-02T13:02:08;100958.30;;;13.75;84.33
60920;BME280;59039;52.108;19.942;2022-11-02T13:04:49;100956.30;;;13.75;83.54
60920;BME280;59039;52.108;19.942;2022-11-02T13:07:21;100953.29;;;13.76;82.19
60920;BME280;59039;52.108;19.942;2022-11-02T13:10:19;100953.03;;;13.77;82.61
60920;BME280;59039;52.108;19.942;2022-11-02T13:12:48;100954.23;;;13.77;81.89
60920;BME280;59039;52.108;19.942;2022-11-02T13:15:18;100956.76;;;13.78;82.16
60920;BME280;59039;52.108;19.942;2022-11-02T13:17:56;100959.20;;;13.77;79.77
60920;BME280;59039;52.108;19.942;2022-11-02T13:20:42;100963.37;;;13.77;81.79
60920;BME280;59039;52.108;19.942;2022-11-02T13:26:01;100960.91;;;13.75;79.21
60920;BME280;59039;52.108;19.942;2022-11-02T13:28:32;100964.70;;;13.75;80.62
60920;BME280;59039;52.108;19.942;2022-11-02T13:30:59;100962.34;;;13.75;81.71
60920;BME280;59039;52.108;19.942;2022-11-02T13:33:29;100962.07;;;13.74;79.99
60920;BME280;59039;52.108;19.942;2022-11-02T13:35:58;100952.81;;;13.74;79.65
60920;BME280;59039;52.108;19.942;2022-11-02T13:38:30;100953.15;;;13.74;80.69
60920;BME280;59039;52.108;19.942;2022-11-02T13:41:31;100947.17;;;13.74;80.94
60920;BME280;59039;52.108;19.942;2022-11-02T13:44:18;100951.61;;;13.73;80.63
60920;BME280;59039;52.108;19.942;2022-11-02T13:50:01;100956.89;;;13.71;80.79
60920;BME280;59039;52.108;19.942;2022-11-02T13:52:51;100960.88;;;13.70;80.41
60920;BME280;59039;52.108;19.942;2022-11-02T13:55:26;100961.10;;;13.68;80.31
60920;BME280;59039;52.108;19.942;2022-11-02T13:57:58;100962.70;;;13.66;79.87
60920;BME280;59039;52.108;19.942;2022-11-02T14:00:28;100960.23;;;13.66;79.77
60920;BME280;59039;52.108;19.942;2022-11-02T14:02:59;100957.53;;;13.64;77.81
60920;BME280;59039;52.108;19.942;2022-11-02T14:05:33;100957.04;;;13.61;77.99
60920;BME280;59039;52.108;19.942;2022-11-02T14:08:08;100956.98;;;13.60;78.71
60920;BME280;59039;52.108;19.942;2022-11-02T14:10:37;100952.78;;;13.58;78.62
60920;BME280;59039;52.108;19.942;2022-11-02T14:13:03;100948.56;;;13.57;78.55
60920;BME280;59039;52.108;19.942;2022-11-02T14:30:45;100947.19;;;13.42;78.35
60920;BME280;59039;52.108;19.942;2022-11-02T14:33:42;100946.79;;;13.39;78.16